sensor_id;sensor_type;location;lat;lon;timestamp;pressure;altitude;pressure_sealevel;temperature;humidity
59053;BME280;44843;44.728;10.396;2022-07-29T00:02:07;100307.59;;;24.36;nan
59053;BME280;44843;44.728;10.396;2022-07-29T00:04:36;100316.03;;;24.25;nan
59053;BME280;44843;44.728;10.396;2022-07-29T00:07:02;100322.56;;;23.99;nan
59053;BME280;44843;44.728;10.396;2022-07-29T00:09:28;100330.91;;;23.96;nan
59053;BME280;44843;44.728;10.396;2022-07-29T00:11:56;100330.50;;;24.08;nan
59053;BME280;44843;44.728;10.396;2022-07-29T00:14:23;100323.16;;;24.10;nan
59053;BME280;44843;44.728;10.396;2022-07-29T00:16:49;100335.63;;;24.09;nan
59053;BME280;44843;44.728;10.396;2022-07-29T00:19:14;100339.97;;;23.87;nan
59053;BME280;44843;44.728;10.396;2022-07-29T00:21:39;100340.78;;;23.88;nan
59053;BME280;44843;44.728;10.396;2022-07-29T00:24:05;100334.38;;;23.74;nan
59053;BME280;44843;44.728;10.396;2022-07-29T00:26:30;100344.34;;;23.80;nan
59053;BME280;44843;44.728;10.396;2022-07-29T00:29:01;100348.47;;;23.82;nan
59053;BME280;44843;44.728;10.396;2022-07-29T00:31:27;100346.59;;;23.91;nan
59053;BME280;44843;44.728;10.396;2022-07-29T00:33:53;100339.75;;;23.97;nan
59053;BME280;44843;44.728;10.396;2022-07-29T00:36:19;100342.22;;;23.67;nan
59053;BME280;44843;44.728;10.396;2022-07-29T00:38:49;100328.78;;;23.92;nan
59053;BME280;44843;44.728;10.396;2022-07-29T00:41:16;100314.41;;;24.01;nan
59053;BME280;44843;44.728;10.396;2022-07-29T00:43:42;100309.09;;;24.16;nan
59053;BME280;44843;44.728;10.396;2022-07-29T00:46:07;100319.53;;;24.02;nan
59053;BME280;44843;44.728;10.396;2022-07-29T00:48:33;100318.66;;;23.87;nan
59053;BME280;44843;44.728;10.396;2022-07-29T00:50:59;100330.28;;;23.94;nan
59053;BME280;44843;44.728;10.396;2022-07-29T00:53:26;100308.97;;;23.94;nan
59053;BME280;44843;44.728;10.396;2022-07-29T00:55:54;100314.00;;;23.89;nan
59053;BME280;44843;44.728;10.396;2022-07-29T00:58:20;100317.88;;;23.78;nan
59053;BME280;44843;44.728;10.396;2022-07-29T01:00:45;100314.13;;;23.64;nan
59053;BME280;44843;44.728;10.396;2022-07-29T01:03:11;100310.34;;;23.59;nan
59053;BME280;44843;44.728;10.396;2022-07-29T01:05:37;100314.78;;;23.67;nan
59053;BME280;44843;44.728;10.396;2022-07-29T01:08:03;100308.84;;;23.56;nan
59053;BME280;44843;44.728;10.396;2022-07-29T01:10:29;100303.53;;;23.56;nan
59053;BME280;44843;44.728;10.396;2022-07-29T01:12:57;100306.72;;;23.52;nan
59053;BME280;44843;44.728;10.396;2022-07-29T01:15:23;100306.72;;;23.52;nan
59053;BME280;44843;44.728;10.396;2022-07-29T01:18:03;100312.06;;;23.52;nan
59053;BME280;44843;44.728;10.396;2022-07-29T01:28:13;100314.44;;;23.70;nan
59053;BME280;44843;44.728;10.396;2022-07-29T01:30:44;100311.19;;;23.59;nan
59053;BME280;44843;44.728;10.396;2022-07-29T01:33:13;100308.06;;;23.48;nan
59053;BME280;44843;44.728;10.396;2022-07-29T01:36:05;100309.03;;;23.55;nan
59053;BME280;44843;44.728;10.396;2022-07-29T01:38:34;100310.56;;;23.49;nan
59053;BME280;44843;44.728;10.396;2022-07-29T01:41:12;100310.75;;;23.48;nan
59053;BME280;44843;44.728;10.396;2022-07-29T01:44:02;100312.34;;;23.57;nan
59053;BME280;44843;44.728;10.396;2022-07-29T01:46:38;100305.91;;;23.51;nan
59053;BME280;44843;44.728;10.396;2022-07-29T01:49:20;100306.84;;;23.58;nan
59053;BME280;44843;44.728;10.396;2022-07-29T01:51:52;100315.31;;;23.62;nan
59053;BME280;44843;44.728;10.396;2022-07-29T01:54:51;100310.22;;;23.52;nan
59053;BME280;44843;44.728;10.396;2022-07-29T01:57:19;100301.38;;;23.60;nan
59053;BME280;44843;44.728;10.396;2022-07-29T01:59:47;100305.00;;;23.59;nan
59053;BME280;44843;44.728;10.396;2022-07-29T02:02:17;100297.09;;;23.51;nan
59053;BME280;44843;44.728;10.396;2022-07-29T02:04:44;100299.69;;;23.36;nan
59053;BME280;44843;44.728;10.396;2022-07-29T02:07:17;100298.41;;;23.23;nan
59053;BME280;44843;44.728;10.396;2022-07-29T02:09:43;100296.81;;;23.06;nan
59053;BME280;44843;44.728;10.396;2022-07-29T02:12:11;100298.44;;;23.15;nan
59053;BME280;44843;44.728;10.396;2022-07-29T02:14:43;100301.00;;;23.00;nan
59053;BME280;44843;44.728;10.396;2022-07-29T02:17:10;100302.66;;;23.01;nan
59053;BME280;44843;44.728;10.396;2022-07-29T02:19:38;100301.69;;;22.78;nan
59053;BME280;44843;44.728;10.396;2022-07-29T02:22:05;100302.06;;;22.75;nan
59053;BME280;44843;44.728;10.396;2022-07-29T02:24:32;100302.19;;;22.81;nan
59053;BME280;44843;44.728;10.396;2022-07-29T02:26:59;100292.66;;;22.95;nan
59053;BME280;44843;44.728;10.396;2022-07-29T02:29:26;100298.50;;;22.91;nan
59053;BME280;44843;44.728;10.396;2022-07-29T02:31:54;100298.34;;;22.92;nan
59053;BME280;44843;44.728;10.396;2022-07-29T02:34:21;100302.97;;;22.98;nan
59053;BME280;44843;44.728;10.396;2022-07-29T02:36:48;100303.66;;;23.00;nan
59053;BME280;44843;44.728;10.396;2022-07-29T02:39:15;100306.16;;;22.94;nan
59053;BME280;44843;44.728;10.396;2022-07-29T02:42:03;100308.84;;;22.86;nan
59053;BME280;44843;44.728;10.396;2022-07-29T02:44:31;100308.19;;;22.83;nan
59053;BME280;44843;44.728;10.396;2022-07-29T02:47:18;100308.53;;;22.72;nan
59053;BME280;44843;44.728;10.396;2022-07-29T02:50:00;100305.84;;;22.80;nan
59053;BME280;44843;44.728;10.396;2022-07-29T02:53:12;100303.50;;;22.94;nan
59053;BME280;44843;44.728;10.396;2022-07-29T02:57:58;100304.59;;;23.16;nan
59053;BME280;44843;44.728;10.396;2022-07-29T03:00:28;100312.97;;;22.96;nan
59053;BME280;44843;44.728;10.396;2022-07-29T03:02:56;100291.06;;;22.86;nan
59053;BME280;44843;44.728;10.396;2022-07-29T03:05:24;100295.13;;;22.66;nan
59053;BME280;44843;44.728;10.396;2022-07-29T03:07:56;100297.63;;;22.59;nan
59053;BME280;44843;44.728;10.396;2022-07-29T03:10:23;100303.91;;;22.58;nan
59053;BME280;44843;44.728;10.396;2022-07-29T03:12:50;100307.59;;;22.57;nan
59053;BME280;44843;44.728;10.396;2022-07-29T03:15:16;100311.88;;;22.74;nan
59053;BME280;44843;44.728;10.396;2022-07-29T03:17:43;100309.56;;;22.63;nan
59053;BME280;44843;44.728;10.396;2022-07-29T03:20:09;100320.53;;;22.52;nan
59053;BME280;44843;44.728;10.396;2022-07-29T03:22:42;100304.94;;;22.49;nan
59053;BME280;44843;44.728;10.396;2022-07-29T03:25:14;100318.38;;;22.47;nan
59053;BME280;44843;44.728;10.396;2022-07-29T03:27:40;100315.41;;;22.50;nan
59053;BME280;44843;44.728;10.396;2022-07-29T03:30:07;100313.41;;;22.52;nan
59053;BME280;44843;44.728;10.396;2022-07-29T03:32:33;100311.94;;;22.33;nan
59053;BME280;44843;44.728;10.396;2022-07-29T03:34:59;100310.41;;;22.47;nan
59053;BME280;44843;44.728;10.396;2022-07-29T03:37:25;100311.94;;;22.25;nan
59053;BME280;44843;44.728;10.396;2022-07-29T03:39:52;100311.63;;;22.28;nan
59053;BME280;44843;44.728;10.396;2022-07-29T03:42:19;100309.94;;;22.35;nan
59053;BME280;44843;44.728;10.396;2022-07-29T03:44:48;100304.63;;;22.44;nan
59053;BME280;44843;44.728;10.396;2022-07-29T03:47:17;100309.28;;;22.33;nan
59053;BME280;44843;44.728;10.396;2022-07-29T03:49:46;100297.31;;;22.46;nan
59053;BME280;44843;44.728;10.396;2022-07-29T03:52:13;100294.78;;;22.60;nan
59053;BME280;44843;44.728;10.396;2022-07-29T03:54:40;100301.41;;;22.65;nan
59053;BME280;44843;44.728;10.396;2022-07-29T03:57:06;100294.91;;;22.67;nan
59053;BME280;44843;44.728;10.396;2022-07-29T03:59:32;100307.09;;;22.53;nan
59053;BME280;44843;44.728;10.396;2022-07-29T04:02:00;100312.91;;;22.57;nan
59053;BME280;44843;44.728;10.396;2022-07-29T04:04:26;100313.06;;;22.63;nan
59053;BME280;44843;44.728;10.396;2022-07-29T04:06:52;100318.72;;;22.44;nan
59053;BME280;44843;44.728;10.396;2022-07-29T04:09:17;100319.75;;;22.35;nan
59053;BME280;44843;44.728;10.396;2022-07-29T04:11:43;100327.19;;;22.31;nan
59053;BME280;44843;44.728;10.396;2022-07-29T04:14:08;100328.53;;;22.27;nan
59053;BME280;44843;44.728;10.396;2022-07-29T04:16:34;100333.00;;;22.43;nan
59053;BME280;44843;44.728;10.396;2022-07-29T04:18:59;100338.34;;;22.35;nan
59053;BME280;44843;44.728;10.396;2022-07-29T04:21:25;100344.94;;;22.39;nan
59053;BME280;44843;44.728;10.396;2022-07-29T04:23:50;100338.66;;;22.32;nan
59053;BME280;44843;44.728;10.396;2022-07-29T04:26:17;100335.50;;;22.36;nan
59053;BME280;44843;44.728;10.396;2022-07-29T04:28:43;100330.34;;;22.43;nan
59053;BME280;44843;44.728;10.396;2022-07-29T04:31:09;100328.84;;;22.32;nan
59053;BME280;44843;44.728;10.396;2022-07-29T04:33:34;100332.84;;;22.45;nan
59053;BME280;44843;44.728;10.396;2022-07-29T04:36:00;100333.16;;;22.50;nan
59053;BME280;44843;44.728;10.396;2022-07-29T04:38:25;100327.69;;;22.51;nan
59053;BME280;44843;44.728;10.396;2022-07-29T04:40:51;100327.72;;;22.35;nan
59053;BME280;44843;44.728;10.396;2022-07-29T04:43:16;100330.53;;;22.41;nan
59053;BME280;44843;44.728;10.396;2022-07-29T04:45:42;100330.69;;;22.48;nan
59053;BME280;44843;44.728;10.396;2022-07-29T04:48:07;100333.16;;;22.50;nan
59053;BME280;44843;44.728;10.396;2022-07-29T04:50:33;100333.13;;;22.74;nan
59053;BME280;44843;44.728;10.396;2022-07-29T04:52:58;100343.03;;;22.97;nan
59053;BME280;44843;44.728;10.396;2022-07-29T04:55:24;100338.69;;;23.12;nan
59053;BME280;44843;44.728;10.396;2022-07-29T04:57:50;100338.53;;;23.45;nan
59053;BME280;44843;44.728;10.396;2022-07-29T05:00:16;100335.63;;;23.23;nan
59053;BME280;44843;44.728;10.396;2022-07-29T05:02:41;100338.56;;;23.37;nan
59053;BME280;44843;44.728;10.396;2022-07-29T05:05:07;100345.81;;;23.51;nan
59053;BME280;44843;44.728;10.396;2022-07-29T05:07:33;100343.16;;;23.74;nan
59053;BME280;44843;44.728;10.396;2022-07-29T05:09:58;100349.19;;;23.76;nan
59053;BME280;44843;44.728;10.396;2022-07-29T05:12:25;100354.59;;;23.91;nan
59053;BME280;44843;44.728;10.396;2022-07-29T05:14:50;100360.94;;;23.90;nan
59053;BME280;44843;44.728;10.396;2022-07-29T05:17:16;100365.78;;;24.10;nan
59053;BME280;44843;44.728;10.396;2022-07-29T05:19:41;100350.34;;;24.43;nan
59053;BME280;44843;44.728;10.396;2022-07-29T05:22:07;100353.34;;;24.25;nan
59053;BME280;44843;44.728;10.396;2022-07-29T05:24:32;100360.88;;;24.59;nan
59053;BME280;44843;44.728;10.396;2022-07-29T05:26:57;100360.44;;;24.56;nan
59053;BME280;44843;44.728;10.396;2022-07-29T05:29:23;100368.97;;;24.66;nan
59053;BME280;44843;44.728;10.396;2022-07-29T05:31:48;100361.63;;;24.83;nan
59053;BME280;44843;44.728;10.396;2022-07-29T05:34:14;100363.38;;;25.05;nan
59053;BME280;44843;44.728;10.396;2022-07-29T05:36:39;100364.69;;;25.24;nan
59053;BME280;44843;44.728;10.396;2022-07-29T05:39:04;100366.06;;;25.20;nan
59053;BME280;44843;44.728;10.396;2022-07-29T05:41:33;100364.75;;;25.01;nan
59053;BME280;44843;44.728;10.396;2022-07-29T05:43:58;100371.56;;;25.34;nan
59053;BME280;44843;44.728;10.396;2022-07-29T05:46:24;100372.59;;;25.47;nan
59053;BME280;44843;44.728;10.396;2022-07-29T05:48:50;100371.75;;;25.02;nan
59053;BME280;44843;44.728;10.396;2022-07-29T05:51:15;100380.50;;;25.92;nan
59053;BME280;44843;44.728;10.396;2022-07-29T05:53:40;100376.16;;;27.73;nan
59053;BME280;44843;44.728;10.396;2022-07-29T05:56:06;100376.06;;;30.67;nan
59053;BME280;44843;44.728;10.396;2022-07-29T05:58:32;100385.19;;;31.77;nan
59053;BME280;44843;44.728;10.396;2022-07-29T06:00:58;100387.34;;;32.29;nan
59053;BME280;44843;44.728;10.396;2022-07-29T06:03:25;100395.53;;;32.22;nan
59053;BME280;44843;44.728;10.396;2022-07-29T06:05:50;100378.09;;;32.95;nan
59053;BME280;44843;44.728;10.396;2022-07-29T06:08:16;100378.03;;;33.19;nan
59053;BME280;44843;44.728;10.396;2022-07-29T06:10:42;100374.47;;;34.16;nan
59053;BME280;44843;44.728;10.396;2022-07-29T06:13:07;100378.88;;;34.05;nan
59053;BME280;44843;44.728;10.396;2022-07-29T06:15:33;100375.22;;;35.06;nan
59053;BME280;44843;44.728;10.396;2022-07-29T06:17:58;100384.63;;;34.99;nan
59053;BME280;44843;44.728;10.396;2022-07-29T06:20:24;100381.47;;;35.29;nan
59053;BME280;44843;44.728;10.396;2022-07-29T06:22:49;100391.19;;;34.64;nan
59053;BME280;44843;44.728;10.396;2022-07-29T06:25:14;100386.06;;;30.10;nan
59053;BME280;44843;44.728;10.396;2022-07-29T06:27:40;100397.94;;;28.79;nan
59053;BME280;44843;44.728;10.396;2022-07-29T06:30:05;100395.16;;;27.85;nan
59053;BME280;44843;44.728;10.396;2022-07-29T06:32:33;100404.81;;;27.73;nan
59053;BME280;44843;44.728;10.396;2022-07-29T06:34:58;100407.00;;;27.56;nan
59053;BME280;44843;44.728;10.396;2022-07-29T06:37:23;100401.16;;;27.39;nan
59053;BME280;44843;44.728;10.396;2022-07-29T06:39:49;100401.75;;;27.35;nan
59053;BME280;44843;44.728;10.396;2022-07-29T06:42:34;100414.78;;;27.44;nan
59053;BME280;44843;44.728;10.396;2022-07-29T06:45:00;100409.22;;;27.11;nan
59053;BME280;44843;44.728;10.396;2022-07-29T06:47:25;100404.31;;;27.15;nan
59053;BME280;44843;44.728;10.396;2022-07-29T06:49:50;100398.97;;;27.15;nan
59053;BME280;44843;44.728;10.396;2022-07-29T06:52:16;100398.69;;;27.38;nan
59053;BME280;44843;44.728;10.396;2022-07-29T06:54:41;100391.34;;;27.53;nan
59053;BME280;44843;44.728;10.396;2022-07-29T06:57:13;100391.16;;;27.61;nan
59053;BME280;44843;44.728;10.396;2022-07-29T06:59:38;100391.75;;;27.57;nan
59053;BME280;44843;44.728;10.396;2022-07-29T07:02:04;100381.84;;;28.72;nan
59053;BME280;44843;44.728;10.396;2022-07-29T07:04:29;100385.94;;;31.96;nan
59053;BME280;44843;44.728;10.396;2022-07-29T07:06:55;100388.72;;;30.85;nan
59053;BME280;44843;44.728;10.396;2022-07-29T07:09:21;100381.63;;;29.90;nan
59053;BME280;44843;44.728;10.396;2022-07-29T07:11:46;100385.16;;;29.46;nan
59053;BME280;44843;44.728;10.396;2022-07-29T07:14:12;100388.56;;;29.08;nan
59053;BME280;44843;44.728;10.396;2022-07-29T07:16:37;100384.34;;;28.67;nan
59053;BME280;44843;44.728;10.396;2022-07-29T07:19:02;100395.88;;;28.61;nan
59053;BME280;44843;44.728;10.396;2022-07-29T07:21:28;100402.28;;;28.60;nan
59053;BME280;44843;44.728;10.396;2022-07-29T07:23:54;100400.22;;;28.62;nan
59053;BME280;44843;44.728;10.396;2022-07-29T07:26:19;100399.75;;;28.98;nan
59053;BME280;44843;44.728;10.396;2022-07-29T07:28:44;100401.63;;;28.91;nan
59053;BME280;44843;44.728;10.396;2022-07-29T07:31:11;100389.47;;;28.68;nan
59053;BME280;44843;44.728;10.396;2022-07-29T07:33:37;100395.66;;;28.62;nan
59053;BME280;44843;44.728;10.396;2022-07-29T07:36:02;100397.31;;;28.63;nan
59053;BME280;44843;44.728;10.396;2022-07-29T07:38:28;100392.38;;;28.60;nan
59053;BME280;44843;44.728;10.396;2022-07-29T07:40:54;100386.72;;;28.95;nan
59053;BME280;44843;44.728;10.396;2022-07-29T07:43:19;100394.44;;;28.65;nan
59053;BME280;44843;44.728;10.396;2022-07-29T07:45:45;100389.28;;;28.57;nan
59053;BME280;44843;44.728;10.396;2022-07-29T07:48:10;100376.47;;;28.72;nan
59053;BME280;44843;44.728;10.396;2022-07-29T07:50:36;100378.53;;;28.76;nan
59053;BME280;44843;44.728;10.396;2022-07-29T07:53:02;100383.78;;;29.23;nan
59053;BME280;44843;44.728;10.396;2022-07-29T07:55:28;100385.72;;;29.09;nan
59053;BME280;44843;44.728;10.396;2022-07-29T07:57:54;100376.41;;;29.12;nan
59053;BME280;44843;44.728;10.396;2022-07-29T08:00:20;100375.63;;;28.85;nan
59053;BME280;44843;44.728;10.396;2022-07-29T08:02:46;100375.22;;;28.74;nan
59053;BME280;44843;44.728;10.396;2022-07-29T08:05:13;100377.09;;;28.41;nan
59053;BME280;44843;44.728;10.396;2022-07-29T08:07:43;100374.19;;;28.35;nan
59053;BME280;44843;44.728;10.396;2022-07-29T08:10:09;100369.44;;;28.71;nan
59053;BME280;44843;44.728;10.396;2022-07-29T08:12:34;100363.09;;;28.59;nan
59053;BME280;44843;44.728;10.396;2022-07-29T08:15:00;100359.97;;;28.62;nan
59053;BME280;44843;44.728;10.396;2022-07-29T08:17:25;100364.09;;;28.84;nan
59053;BME280;44843;44.728;10.396;2022-07-29T08:19:51;100365.84;;;29.04;nan
59053;BME280;44843;44.728;10.396;2022-07-29T08:22:17;100364.16;;;29.29;nan
59053;BME280;44843;44.728;10.396;2022-07-29T08:24:42;100367.28;;;29.26;nan
59053;BME280;44843;44.728;10.396;2022-07-29T08:27:12;100369.53;;;29.29;nan
59053;BME280;44843;44.728;10.396;2022-07-29T08:29:38;100366.47;;;29.26;nan
59053;BME280;44843;44.728;10.396;2022-07-29T08:32:03;100366.97;;;28.76;nan
59053;BME280;44843;44.728;10.396;2022-07-29T08:34:29;100367.13;;;28.94;nan
59053;BME280;44843;44.728;10.396;2022-07-29T08:36:55;100362.38;;;28.96;nan
59053;BME280;44843;44.728;10.396;2022-07-29T08:39:21;100357.25;;;28.82;nan
59053;BME280;44843;44.728;10.396;2022-07-29T08:41:47;100366.16;;;28.22;nan
59053;BME280;44843;44.728;10.396;2022-07-29T08:44:15;100350.69;;;28.04;nan
59053;BME280;44843;44.728;10.396;2022-07-29T08:46:40;100372.53;;;27.94;nan
59053;BME280;44843;44.728;10.396;2022-07-29T08:49:06;100351.91;;;27.95;nan
59053;BME280;44843;44.728;10.396;2022-07-29T08:51:33;100353.16;;;28.12;nan
59053;BME280;44843;44.728;10.396;2022-07-29T08:54:01;100352.56;;;28.10;nan
59053;BME280;44843;44.728;10.396;2022-07-29T08:56:27;100345.25;;;27.64;nan
59053;BME280;44843;44.728;10.396;2022-07-29T08:58:53;100349.25;;;28.28;nan
59053;BME280;44843;44.728;10.396;2022-07-29T09:01:24;100344.69;;;27.96;nan
59053;BME280;44843;44.728;10.396;2022-07-29T09:03:50;100338.91;;;28.79;nan
59053;BME280;44843;44.728;10.396;2022-07-29T09:06:21;100341.09;;;29.08;nan
59053;BME280;44843;44.728;10.396;2022-07-29T09:08:46;100341.56;;;28.85;nan
59053;BME280;44843;44.728;10.396;2022-07-29T09:11:13;100344.13;;;29.25;nan
59053;BME280;44843;44.728;10.396;2022-07-29T09:13:38;100343.06;;;28.54;nan
59053;BME280;44843;44.728;10.396;2022-07-29T09:16:04;100336.84;;;28.81;nan
59053;BME280;44843;44.728;10.396;2022-07-29T09:18:34;100339.63;;;29.06;nan
59053;BME280;44843;44.728;10.396;2022-07-29T09:21:00;100341.88;;;29.22;nan
59053;BME280;44843;44.728;10.396;2022-07-29T09:26:28;100339.28;;;28.89;nan
59053;BME280;44843;44.728;10.396;2022-07-29T09:28:53;100341.41;;;28.67;nan
59053;BME280;44843;44.728;10.396;2022-07-29T09:31:32;100328.34;;;28.90;nan
59053;BME280;44843;44.728;10.396;2022-07-29T09:33:58;100329.50;;;29.14;nan
59053;BME280;44843;44.728;10.396;2022-07-29T09:36:25;100329.34;;;29.09;nan
59053;BME280;44843;44.728;10.396;2022-07-29T09:38:59;100325.25;;;28.93;nan
59053;BME280;44843;44.728;10.396;2022-07-29T09:41:28;100325.50;;;28.72;nan
59053;BME280;44843;44.728;10.396;2022-07-29T09:43:58;100316.75;;;28.96;nan
59053;BME280;44843;44.728;10.396;2022-07-29T09:46:24;100311.63;;;28.82;nan
59053;BME280;44843;44.728;10.396;2022-07-29T09:49:10;100309.31;;;28.99;nan
59053;BME280;44843;44.728;10.396;2022-07-29T09:51:36;100300.63;;;29.10;nan
59053;BME280;44843;44.728;10.396;2022-07-29T09:54:21;100296.13;;;29.42;nan
59053;BME280;44843;44.728;10.396;2022-07-29T09:56:47;100292.81;;;29.47;nan
59053;BME280;44843;44.728;10.396;2022-07-29T09:59:13;100301.03;;;29.07;nan
59053;BME280;44843;44.728;10.396;2022-07-29T10:01:39;100303.88;;;28.67;nan
59053;BME280;44843;44.728;10.396;2022-07-29T10:04:04;100292.66;;;28.83;nan
59053;BME280;44843;44.728;10.396;2022-07-29T10:06:30;100297.00;;;28.84;nan
59053;BME280;44843;44.728;10.396;2022-07-29T10:09:07;100295.66;;;29.07;nan
59053;BME280;44843;44.728;10.396;2022-07-29T10:11:33;100286.03;;;29.37;nan
59053;BME280;44843;44.728;10.396;2022-07-29T10:13:59;100282.34;;;29.32;nan
59053;BME280;44843;44.728;10.396;2022-07-29T10:16:26;100289.34;;;29.40;nan
59053;BME280;44843;44.728;10.396;2022-07-29T10:18:58;100282.06;;;29.47;nan
59053;BME280;44843;44.728;10.396;2022-07-29T10:21:25;100282.16;;;29.65;nan
59053;BME280;44843;44.728;10.396;2022-07-29T10:23:51;100284.38;;;29.75;nan
59053;BME280;44843;44.728;10.396;2022-07-29T10:26:16;100284.19;;;29.38;nan
59053;BME280;44843;44.728;10.396;2022-07-29T10:28:43;100284.41;;;29.30;nan
59053;BME280;44843;44.728;10.396;2022-07-29T10:31:15;100283.03;;;29.21;nan
59053;BME280;44843;44.728;10.396;2022-07-29T10:34:13;100269.38;;;29.29;nan
59053;BME280;44843;44.728;10.396;2022-07-29T10:36:56;100263.38;;;29.27;nan
59053;BME280;44843;44.728;10.396;2022-07-29T10:42:19;100256.91;;;29.41;nan
59053;BME280;44843;44.728;10.396;2022-07-29T10:44:46;100261.03;;;29.44;nan
59053;BME280;44843;44.728;10.396;2022-07-29T10:47:25;100258.34;;;29.44;nan
59053;BME280;44843;44.728;10.396;2022-07-29T10:49:59;100260.22;;;29.68;nan
59053;BME280;44843;44.728;10.396;2022-07-29T10:52:25;100271.66;;;29.89;nan
59053;BME280;44843;44.728;10.396;2022-07-29T10:55:30;100268.88;;;29.77;nan
59053;BME280;44843;44.728;10.396;2022-07-29T10:58:19;100259.66;;;29.28;nan
59053;BME280;44843;44.728;10.396;2022-07-29T11:00:47;100259.06;;;29.57;nan
59053;BME280;44843;44.728;10.396;2022-07-29T11:03:42;100262.03;;;29.81;nan
59053;BME280;44843;44.728;10.396;2022-07-29T11:06:10;100260.13;;;29.56;nan
59053;BME280;44843;44.728;10.396;2022-07-29T11:08:35;100254.03;;;29.68;nan
59053;BME280;44843;44.728;10.396;2022-07-29T11:16:14;100248.38;;;29.83;nan
59053;BME280;44843;44.728;10.396;2022-07-29T11:21:37;100242.66;;;29.97;nan
59053;BME280;44843;44.728;10.396;2022-07-29T11:24:23;100236.94;;;30.12;nan
59053;BME280;44843;44.728;10.396;2022-07-29T11:27:20;100240.81;;;29.66;nan
59053;BME280;44843;44.728;10.396;2022-07-29T11:29:54;100232.59;;;29.29;nan
59053;BME280;44843;44.728;10.396;2022-07-29T11:32:22;100224.75;;;29.60;nan
59053;BME280;44843;44.728;10.396;2022-07-29T11:34:48;100228.44;;;29.65;nan
59053;BME280;44843;44.728;10.396;2022-07-29T11:37:17;100219.56;;;29.90;nan
59053;BME280;44843;44.728;10.396;2022-07-29T11:47:36;100211.06;;;29.93;nan
59053;BME280;44843;44.728;10.396;2022-07-29T11:50:03;100204.88;;;30.11;nan
59053;BME280;44843;44.728;10.396;2022-07-29T11:52:56;100196.13;;;29.97;nan
59053;BME280;44843;44.728;10.396;2022-07-29T11:55:22;100196.28;;;30.02;nan
59053;BME280;44843;44.728;10.396;2022-07-29T11:57:56;100189.59;;;30.11;nan
59053;BME280;44843;44.728;10.396;2022-07-29T12:02:50;100182.19;;;30.25;nan
59053;BME280;44843;44.728;10.396;2022-07-29T12:05:16;100190.81;;;30.34;nan
59053;BME280;44843;44.728;10.396;2022-07-29T12:07:42;100185.28;;;30.66;nan
59053;BME280;44843;44.728;10.396;2022-07-29T12:10:08;100185.50;;;30.46;nan
59053;BME280;44843;44.728;10.396;2022-07-29T12:12:34;100189.03;;;30.46;nan
59053;BME280;44843;44.728;10.396;2022-07-29T12:15:14;100180.81;;;30.59;nan
59053;BME280;44843;44.728;10.396;2022-07-29T12:17:41;100178.16;;;30.71;nan
59053;BME280;44843;44.728;10.396;2022-07-29T12:20:07;100178.25;;;30.65;nan
59053;BME280;44843;44.728;10.396;2022-07-29T12:22:36;100183.63;;;30.65;nan
59053;BME280;44843;44.728;10.396;2022-07-29T12:25:05;100183.06;;;30.44;nan
59053;BME280;44843;44.728;10.396;2022-07-29T12:27:31;100174.16;;;30.62;nan
59053;BME280;44843;44.728;10.396;2022-07-29T12:30:02;100166.81;;;30.69;nan
59053;BME280;44843;44.728;10.396;2022-07-29T12:32:36;100165.06;;;30.93;nan
59053;BME280;44843;44.728;10.396;2022-07-29T12:35:07;100159.22;;;30.78;nan
59053;BME280;44843;44.728;10.396;2022-07-29T12:37:38;100160.16;;;30.90;nan
59053;BME280;44843;44.728;10.396;2022-07-29T12:40:05;100169.66;;;31.05;nan
59053;BME280;44843;44.728;10.396;2022-07-29T12:42:31;100173.13;;;30.93;nan
59053;BME280;44843;44.728;10.396;2022-07-29T12:44:57;100163.88;;;30.89;nan
59053;BME280;44843;44.728;10.396;2022-07-29T12:47:23;100147.44;;;30.79;nan
59053;BME280;44843;44.728;10.396;2022-07-29T12:49:49;100140.28;;;30.54;nan
59053;BME280;44843;44.728;10.396;2022-07-29T12:52:29;100121.34;;;30.79;nan
59053;BME280;44843;44.728;10.396;2022-07-29T12:54:56;100123.88;;;30.93;nan
59053;BME280;44843;44.728;10.396;2022-07-29T12:57:21;100116.06;;;30.73;nan
59053;BME280;44843;44.728;10.396;2022-07-29T13:00:07;100104.22;;;30.74;nan
59053;BME280;44843;44.728;10.396;2022-07-29T13:02:34;100095.34;;;30.25;nan
59053;BME280;44843;44.728;10.396;2022-07-29T13:05:00;100102.03;;;30.52;nan
59053;BME280;44843;44.728;10.396;2022-07-29T13:07:28;100109.66;;;30.55;nan
59053;BME280;44843;44.728;10.396;2022-07-29T13:10:11;100116.31;;;30.53;nan
59053;BME280;44843;44.728;10.396;2022-07-29T13:12:37;100110.88;;;30.71;nan
59053;BME280;44843;44.728;10.396;2022-07-29T13:15:15;100107.28;;;30.77;nan
59053;BME280;44843;44.728;10.396;2022-07-29T13:17:44;100104.81;;;30.76;nan
59053;BME280;44843;44.728;10.396;2022-07-29T13:20:11;100105.72;;;30.88;nan
59053;BME280;44843;44.728;10.396;2022-07-29T13:22:41;100105.84;;;30.93;nan
59053;BME280;44843;44.728;10.396;2022-07-29T13:25:09;100088.97;;;30.86;nan
59053;BME280;44843;44.728;10.396;2022-07-29T13:27:37;100077.72;;;30.59;nan
59053;BME280;44843;44.728;10.396;2022-07-29T13:30:08;100079.41;;;30.72;nan
59053;BME280;44843;44.728;10.396;2022-07-29T13:32:35;100094.75;;;29.86;nan
59053;BME280;44843;44.728;10.396;2022-07-29T13:35:04;100105.00;;;30.32;nan
59053;BME280;44843;44.728;10.396;2022-07-29T13:37:29;100089.66;;;29.77;nan
59053;BME280;44843;44.728;10.396;2022-07-29T13:39:58;100086.84;;;30.28;nan
59053;BME280;44843;44.728;10.396;2022-07-29T13:42:25;100088.75;;;30.39;nan